Time;durP1;ratioP1;P1;durP2;ratioP2;P2;SDS_P1;SDS_P2;PMS_P1;PMS_P2;Temp;Humidity;BMP_temperature;BMP_pressure;BME280_temperature;BME280_humidity;BME280_pressure;Samples;Min_cycle;Max_cycle;Signal;HPM_P1;HPM_P2
2022/05/25 00:00:40;;;;;;;;;;;;;;;20.41;61.72;100717.25;7410202;19;1478;-60
2022/05/25 00:03:08;;;;;;;;;;;;;;;20.42;61.60;100723.47;7409027;19;1552;-59
2022/05/25 00:05:37;;;;;;;;;;;;;;;20.43;61.71;100741.28;7412287;19;1339;-59
2022/05/25 00:08:09;;;;;;;;;;;;;;;20.42;61.31;100739.59;7411214;19;1861;-64
2022/05/25 00:10:38;;;;;;;;;;;;;;;20.41;61.19;100745.94;7411950;19;1291;-64
2022/05/25 00:13:06;;;;;;;;;;;;;;;20.40;61.55;100736.22;7411452;19;1553;-59
2022/05/25 00:15:38;;;;;;;;;;;;;;;20.37;61.51;100733.78;7411749;19;1430;-59
2022/05/25 00:18:06;;;;;;;;;;;;;;;20.37;61.58;100736.47;7409685;19;1682;-60
2022/05/25 00:20:32;;;;;;;;;;;;;;;20.37;61.34;100744.53;7410774;19;1356;-64
2022/05/25 00:23:00;;;;;;;;;;;;;;;20.38;61.21;100740.88;7411671;19;1668;-63
2022/05/25 00:25:32;;;;;;;;;;;;;;;20.36;60.81;100734.81;7410433;19;1622;-59
2022/05/25 00:28:01;;;;;;;;;;;;;;;20.36;60.99;100751.75;7410705;19;1597;-64
2022/05/25 00:30:30;;;;;;;;;;;;;;;20.39;61.24;100745.25;7407906;19;1852;-59
2022/05/25 00:33:01;;;;;;;;;;;;;;;20.37;61.21;100741.84;7410559;19;1539;-60
2022/05/25 00:35:31;;;;;;;;;;;;;;;20.37;61.32;100749.91;7410468;19;1281;-59
2022/05/25 00:37:59;;;;;;;;;;;;;;;20.35;61.10;100750.06;7410121;19;1546;-60
2022/05/25 00:40:29;;;;;;;;;;;;;;;20.35;61.30;100760.81;7409232;19;1501;-59
2022/05/25 00:42:57;;;;;;;;;;;;;;;20.33;61.31;100760.09;7409879;19;1709;-59
2022/05/25 00:45:26;;;;;;;;;;;;;;;20.34;61.20;100763.66;7410218;19;1398;-63
2022/05/25 00:47:54;;;;;;;;;;;;;;;20.32;60.83;100755.72;7409848;19;1563;-59
2022/05/25 00:50:26;;;;;;;;;;;;;;;20.36;60.96;100772.41;7406749;19;1845;-64
2022/05/25 00:52:55;;;;;;;;;;;;;;;20.31;60.76;100764.75;7407924;19;1686;-64
2022/05/25 00:55:27;;;;;;;;;;;;;;;20.32;60.69;100776.38;7409748;19;1748;-59
2022/05/25 00:57:55;;;;;;;;;;;;;;;20.34;60.88;100771.69;7409964;19;1606;-60
2022/05/25 01:00:25;;;;;;;;;;;;;;;20.31;60.66;100767.44;7408610;19;1554;-60
2022/05/25 01:02:54;;;;;;;;;;;;;;;20.34;60.64;100790.50;7407358;19;1571;-63
2022/05/25 01:05:29;;;;;;;;;;;;;;;20.32;60.77;100781.75;7408898;19;1586;-60
2022/05/25 01:08:02;;;;;;;;;;;;;;;20.33;60.38;100772.69;7409968;19;1540;-64
2022/05/25 01:10:35;;;;;;;;;;;;;;;20.33;60.59;100794.16;7407475;19;1855;-59
2022/05/25 01:13:11;;;;;;;;;;;;;;;20.30;60.58;100762.25;7408365;19;1568;-63
2022/05/25 01:15:46;;;;;;;;;;;;;;;20.29;60.49;100773.97;7409352;19;1678;-60
2022/05/25 01:18:20;;;;;;;;;;;;;;;20.30;60.34;100770.28;7407160;19;1486;-63
2022/05/25 01:20:54;;;;;;;;;;;;;;;20.26;60.65;100786.69;7408168;19;1678;-60
2022/05/25 01:23:38;;;;;;;;;;;;;;;20.27;61.05;100771.41;7407723;19;1578;-60
2022/05/25 01:26:27;;;;;;;;;;;;;;;20.28;60.86;100775.81;7407595;19;1516;-60
2022/05/25 01:29:13;;;;;;;;;;;;;;;20.28;60.63;100759.69;7405384;19;1862;-60
2022/05/25 01:31:49;;;;;;;;;;;;;;;20.31;60.50;100771.97;7407528;19;1203;-64
2022/05/25 01:34:23;;;;;;;;;;;;;;;20.30;60.96;100771.13;7409131;19;1591;-64
2022/05/25 01:36:56;;;;;;;;;;;;;;;20.29;60.77;100760.53;7409370;19;1287;-59
2022/05/25 01:39:26;;;;;;;;;;;;;;;20.26;60.49;100784.00;7406058;19;1800;-64
2022/05/25 01:41:57;;;;;;;;;;;;;;;20.27;60.92;100768.72;7407404;19;1677;-59
2022/05/25 01:44:28;;;;;;;;;;;;;;;20.25;60.54;100759.97;7405939;19;1395;-60
2022/05/25 01:47:00;;;;;;;;;;;;;;;20.23;60.68;100762.81;7406896;19;1543;-64
2022/05/25 01:49:33;;;;;;;;;;;;;;;20.24;60.32;100760.97;7407523;19;1853;-60
2022/05/25 01:52:05;;;;;;;;;;;;;;;20.29;60.62;100763.22;7406135;19;1382;-60
2022/05/25 01:54:35;;;;;;;;;;;;;;;20.25;60.31;100752.78;7406224;19;1530;-60
2022/05/25 01:57:08;;;;;;;;;;;;;;;20.26;60.16;100751.78;7405806;19;1756;-64
2022/05/25 01:59:36;;;;;;;;;;;;;;;20.27;60.34;100777.66;7407517;19;1709;-64
2022/05/25 02:04:51;;;;;;;;;;;;;;;20.26;60.51;100751.78;7406212;19;1603;-59
2022/05/25 02:07:35;;;;;;;;;;;;;;;20.27;60.73;100776.78;7407197;19;1496;-60
2022/05/25 02:10:16;;;;;;;;;;;;;;;20.26;60.14;100762.50;7405727;19;1845;-59
2022/05/25 02:12:55;;;;;;;;;;;;;;;20.26;60.16;100775.09;7407066;19;1350;-59
2022/05/25 02:15:29;;;;;;;;;;;;;;;20.25;60.16;100781.44;7406677;19;1511;-59
2022/05/25 02:18:04;;;;;;;;;;;;;;;20.22;59.96;100777.22;7406486;19;1543;-64
2022/05/25 02:20:36;;;;;;;;;;;;;;;20.23;59.77;100783.44;7406636;19;1309;-60
2022/05/25 02:23:07;;;;;;;;;;;;;;;20.21;60.13;100791.66;7407270;19;1649;-59
2022/05/25 02:25:38;;;;;;;;;;;;;;;20.24;59.54;100785.13;7406862;19;1767;-60
2022/05/25 02:28:09;;;;;;;;;;;;;;;20.23;59.29;100800.41;7406860;19;1753;-60
2022/05/25 02:30:40;;;;;;;;;;;;;;;20.19;59.65;100793.63;7406078;19;1899;-62
2022/05/25 02:33:13;;;;;;;;;;;;;;;20.21;59.66;100790.78;7406234;19;1654;-60
2022/05/25 02:35:44;;;;;;;;;;;;;;;20.21;59.72;100807.75;7405647;19;1592;-64
2022/05/25 02:38:12;;;;;;;;;;;;;;;20.18;59.47;100786.56;7406627;19;1649;-63
2022/05/25 02:40:41;;;;;;;;;;;;;;;20.18;59.82;100810.72;7407064;19;1560;-64
2022/05/25 02:43:10;;;;;;;;;;;;;;;20.21;59.62;100812.25;7405918;19;1477;-64
2022/05/25 02:45:39;;;;;;;;;;;;;;;20.19;59.28;100793.63;7406787;19;1489;-59
2022/05/25 02:48:10;;;;;;;;;;;;;;;20.14;59.28;100795.88;7405809;19;1468;-60
2022/05/25 02:50:39;;;;;;;;;;;;;;;20.17;59.11;100805.47;7405594;19;1899;-64
2022/05/25 02:53:11;;;;;;;;;;;;;;;20.17;59.28;100792.91;7406021;19;1642;-59
2022/05/25 02:55:39;;;;;;;;;;;;;;;20.20;59.28;100827.53;7405686;19;1496;-63
2022/05/25 02:58:08;;;;;;;;;;;;;;;20.17;58.93;100822.44;7405977;19;1788;-64
2022/05/25 03:00:36;;;;;;;;;;;;;;;20.20;59.01;100824.84;7404982;19;1339;-64
2022/05/25 03:03:05;;;;;;;;;;;;;;;20.17;59.17;100826.97;7403326;19;1772;-64
2022/05/25 03:05:36;;;;;;;;;;;;;;;20.19;59.03;100825.84;7405686;19;1339;-60
2022/05/25 03:08:05;;;;;;;;;;;;;;;20.17;59.40;100821.59;7405675;19;1605;-63
2022/05/25 03:10:34;;;;;;;;;;;;;;;20.18;58.96;100808.03;7404713;19;1864;-64
2022/05/25 03:13:02;;;;;;;;;;;;;;;20.18;59.25;100817.94;7405445;19;1499;-59
2022/05/25 03:15:30;;;;;;;;;;;;;;;20.16;59.25;100811.88;7404789;19;1563;-60
2022/05/25 03:17:59;;;;;;;;;;;;;;;20.17;58.99;100811.69;7403767;19;1737;-61
2022/05/25 03:20:27;;;;;;;;;;;;;;;20.15;59.19;100829.78;7404862;19;1498;-64
2022/05/25 03:22:58;;;;;;;;;;;;;;;20.17;58.95;100821.59;7404883;19;1572;-63
2022/05/25 03:25:26;;;;;;;;;;;;;;;20.15;58.99;100818.19;7404650;19;1610;-59
2022/05/25 03:27:55;;;;;;;;;;;;;;;20.18;58.83;100829.50;7403915;19;1464;-64
2022/05/25 03:30:24;;;;;;;;;;;;;;;20.15;58.96;100816.34;7402950;19;1845;-64
2022/05/25 03:32:52;;;;;;;;;;;;;;;20.17;58.64;100824.28;7404384;19;1535;-63
2022/05/25 03:35:20;;;;;;;;;;;;;;;20.18;58.63;100817.94;7404667;19;1527;-60
2022/05/25 03:37:49;;;;;;;;;;;;;;;20.20;58.71;100832.91;7405426;19;1638;-60
2022/05/25 03:40:20;;;;;;;;;;;;;;;20.20;58.76;100848.19;7403245;19;1344;-60
2022/05/25 03:42:49;;;;;;;;;;;;;;;20.22;58.93;100840.81;7404454;19;1602;-60
2022/05/25 03:45:17;;;;;;;;;;;;;;;20.23;58.97;100842.50;7405393;19;1335;-64
2022/05/25 03:47:46;;;;;;;;;;;;;;;20.25;58.87;100836.03;7404049;19;1574;-62
2022/05/25 03:50:15;;;;;;;;;;;;;;;20.29;59.05;100865.25;7402663;19;1855;-63
2022/05/25 03:52:43;;;;;;;;;;;;;;;20.33;58.71;100869.34;7404461;19;1419;-68
2022/05/25 03:55:11;;;;;;;;;;;;;;;20.35;58.96;100862.88;7404001;19;1431;-68
2022/05/25 03:57:42;;;;;;;;;;;;;;;20.37;58.71;100849.28;7404172;19;1424;-71
2022/05/25 04:00:11;;;;;;;;;;;;;;;20.39;59.07;100853.53;7403184;19;1313;-67
2022/05/25 04:02:40;;;;;;;;;;;;;;;20.41;58.72;100864.13;7400595;19;1479;-61
2022/05/25 04:05:12;;;;;;;;;;;;;;;20.44;58.84;100882.66;7403164;19;1384;-60
2022/05/25 04:07:41;;;;;;;;;;;;;;;20.39;59.16;100884.91;7404594;19;1501;-62
2022/05/25 04:10:13;;;;;;;;;;;;;;;20.46;58.80;100864.56;7401795;19;1861;-59
2022/05/25 04:12:44;;;;;;;;;;;;;;;20.56;58.66;100859.19;7401965;19;1598;-63
2022/05/25 04:15:14;;;;;;;;;;;;;;;20.45;59.02;100873.59;7400693;19;1233;-64
2022/05/25 04:17:43;;;;;;;;;;;;;;;20.41;59.47;100867.69;7399555;19;1344;-64
2022/05/25 04:20:12;;;;;;;;;;;;;;;20.37;59.26;100876.13;7400136;19;1213;-59
2022/05/25 04:22:40;;;;;;;;;;;;;;;20.40;59.26;100882.09;7400024;19;1760;-59
2022/05/25 04:25:10;;;;;;;;;;;;;;;20.42;59.52;100884.63;7399563;19;1713;-64
2022/05/25 04:27:39;;;;;;;;;;;;;;;20.43;59.30;100859.47;7400114;19;1332;-59
2022/05/25 04:30:13;;;;;;;;;;;;;;;20.43;59.35;100871.06;7407560;19;1863;-60
2022/05/25 04:32:41;;;;;;;;;;;;;;;20.45;59.17;100876.28;7410374;19;1348;-64
2022/05/25 04:35:10;;;;;;;;;;;;;;;20.48;59.40;100870.63;7409516;19;1270;-59
2022/05/25 04:40:21;;;;;;;;;;;;;;;20.50;59.43;100874.03;7408864;19;1333;-64
2022/05/25 04:42:50;;;;;;;;;;;;;;;20.50;59.29;100882.09;7408113;19;1360;-60
2022/05/25 04:45:21;;;;;;;;;;;;;;;20.52;59.41;100855.91;7409257;19;1251;-64
2022/05/25 04:47:49;;;;;;;;;;;;;;;20.59;58.99;100865.16;7409295;19;1489;-59
2022/05/25 04:50:19;;;;;;;;;;;;;;;20.54;59.15;100867.38;7405393;19;1855;-60
2022/05/25 04:52:47;;;;;;;;;;;;;;;20.56;59.44;100876.13;7408243;19;1767;-64
2022/05/25 04:57:56;;;;;;;;;;;;;;;20.57;59.38;100877.84;7405875;19;1706;-64
2022/05/25 05:00:28;;;;;;;;;;;;;;;20.79;59.58;100887.47;7407488;19;1227;-61
2022/05/25 05:02:56;;;;;;;;;;;;;;;20.77;58.94;100869.75;7406406;19;1526;-59
2022/05/25 05:05:25;;;;;;;;;;;;;;;20.86;60.24;100882.34;7408781;19;1328;-59
2022/05/25 05:07:53;;;;;;;;;;;;;;;20.95;59.97;100881.47;7408544;19;1353;-63
2022/05/25 05:10:21;;;;;;;;;;;;;;;21.03;60.05;100878.06;7407981;19;1865;-63
2022/05/25 05:12:50;;;;;;;;;;;;;;;21.01;60.60;100888.97;7407622;19;1541;-68
2022/05/25 05:15:18;;;;;;;;;;;;;;;21.05;60.64;100871.53;7409391;19;1208;-68
2022/05/25 05:17:49;;;;;;;;;;;;;;;21.15;60.51;100876.03;7407680;19;1313;-66
2022/05/25 05:20:17;;;;;;;;;;;;;;;21.12;60.71;100871.78;7409316;19;1465;-67
2022/05/25 05:22:46;;;;;;;;;;;;;;;21.09;61.02;100879.28;7409221;19;1281;-59
2022/05/25 05:25:14;;;;;;;;;;;;;;;21.00;60.64;100868.44;7408170;19;1307;-59
2022/05/25 05:27:42;;;;;;;;;;;;;;;21.03;60.65;100891.50;7406576;19;1451;-63
2022/05/25 05:30:11;;;;;;;;;;;;;;;20.98;61.17;100881.19;7407008;19;1852;-59
2022/05/25 05:32:39;;;;;;;;;;;;;;;20.93;61.38;100896.91;7407514;19;1361;-59
2022/05/25 05:35:11;;;;;;;;;;;;;;;20.85;61.43;100881.50;7404218;19;1216;-60
2022/05/25 05:37:40;;;;;;;;;;;;;;;20.97;61.30;100868.75;7407602;19;1493;-60
2022/05/25 05:40:10;;;;;;;;;;;;;;;21.06;61.01;100886.66;7405383;19;1489;-70
2022/05/25 05:42:40;;;;;;;;;;;;;;;21.04;61.60;100902.09;7407376;19;1235;-73
2022/05/25 05:45:10;;;;;;;;;;;;;;;20.99;61.51;100876.63;7407032;19;1214;-71
2022/05/25 05:47:40;;;;;;;;;;;;;;;20.98;61.95;100897.31;7406790;19;1303;-63
2022/05/25 05:50:12;;;;;;;;;;;;;;;20.97;62.03;100890.25;7407842;19;1845;-65
2022/05/25 05:52:41;;;;;;;;;;;;;;;21.08;61.44;100891.06;7407828;19;1380;-68
2022/05/25 05:55:09;;;;;;;;;;;;;;;21.04;61.60;100899.41;7406795;19;1269;-61
2022/05/25 05:57:38;;;;;;;;;;;;;;;21.05;61.66;100903.81;7407447;19;1495;-68
2022/05/25 06:00:11;;;;;;;;;;;;;;;21.02;61.29;100900.56;7407440;19;1576;-60
2022/05/25 06:02:39;;;;;;;;;;;;;;;21.01;61.43;100904.25;7405555;19;1646;-61
2022/05/25 06:05:09;;;;;;;;;;;;;;;20.99;61.92;100893.63;7407241;19;1245;-60
2022/05/25 06:07:40;;;;;;;;;;;;;;;21.00;61.59;100903.38;7407663;19;1519;-61
2022/05/25 06:10:09;;;;;;;;;;;;;;;21.02;61.35;100919.38;7406537;19;1860;-68
2022/05/25 06:12:38;;;;;;;;;;;;;;;21.03;61.55;100915.72;7404278;19;1370;-61
2022/05/25 06:20:28;;;;;;;;;;;;;;;21.02;61.79;100893.34;7409288;19;1539;-60
2022/05/25 06:22:59;;;;;;;;;;;;;;;21.08;61.59;100896.44;7407375;19;1506;-61
2022/05/25 06:25:27;;;;;;;;;;;;;;;21.06;61.73;100893.88;7406659;19;1634;-61
2022/05/25 06:27:56;;;;;;;;;;;;;;;21.03;61.77;100905.78;7406506;19;1369;-61
2022/05/25 06:30:25;;;;;;;;;;;;;;;21.03;61.97;100895.03;7404248;19;1850;-68
2022/05/25 06:32:53;;;;;;;;;;;;;;;21.04;61.86;100894.03;7406395;19;1369;-61
2022/05/25 06:35:21;;;;;;;;;;;;;;;21.05;61.71;100903.81;7406838;19;1538;-60
2022/05/25 06:37:50;;;;;;;;;;;;;;;21.04;61.90;100888.66;7406928;19;1373;-69
2022/05/25 06:40:21;;;;;;;;;;;;;;;21.06;61.80;100894.72;7406489;19;1363;-68
2022/05/25 06:42:51;;;;;;;;;;;;;;;21.08;61.76;100901.81;7405800;19;1302;-61
2022/05/25 06:45:20;;;;;;;;;;;;;;;21.05;62.01;100906.50;7406538;19;1363;-68
2022/05/25 06:47:48;;;;;;;;;;;;;;;21.02;62.15;100885.25;7406014;19;1381;-61
2022/05/25 06:50:17;;;;;;;;;;;;;;;21.04;62.35;100891.34;7404479;19;1853;-60
2022/05/25 06:52:45;;;;;;;;;;;;;;;21.08;62.09;100905.34;7404919;19;1373;-61
2022/05/25 06:55:13;;;;;;;;;;;;;;;21.05;61.96;100894.91;7402721;19;1289;-68
2022/05/25 06:57:44;;;;;;;;;;;;;;;21.04;62.18;100880.59;7406090;19;1540;-68
2022/05/25 07:00:13;;;;;;;;;;;;;;;21.09;62.23;100890.94;7406395;19;1531;-61
2022/05/25 07:02:42;;;;;;;;;;;;;;;21.08;61.94;100902.66;7403310;19;1591;-68
2022/05/25 07:05:11;;;;;;;;;;;;;;;21.08;62.22;100901.81;7404189;19;1540;-61
2022/05/25 07:07:39;;;;;;;;;;;;;;;21.09;61.88;100908.88;7405700;19;1513;-61
2022/05/25 07:10:08;;;;;;;;;;;;;;;21.04;62.32;100885.97;7404394;19;1604;-61
2022/05/25 07:12:37;;;;;;;;;;;;;;;21.07;62.25;100890.22;7404134;19;1849;-61
2022/05/25 07:15:09;;;;;;;;;;;;;;;21.07;62.52;100884.84;7403466;19;1331;-61
2022/05/25 07:17:37;;;;;;;;;;;;;;;21.09;62.42;100900.81;7404737;19;1611;-61
2022/05/25 07:20:07;;;;;;;;;;;;;;;21.09;62.14;100898.13;7405631;19;1367;-68
2022/05/25 07:22:35;;;;;;;;;;;;;;;21.07;62.32;100895.59;7402999;19;1764;-68
2022/05/25 07:25:04;;;;;;;;;;;;;;;21.12;62.42;100903.22;7403714;19;1556;-61
2022/05/25 07:27:33;;;;;;;;;;;;;;;21.12;62.27;100897.84;7405217;19;1429;-60
2022/05/25 07:30:01;;;;;;;;;;;;;;;21.09;62.11;100908.88;7403691;19;1683;-61
2022/05/25 07:32:32;;;;;;;;;;;;;;;21.11;62.48;100902.38;7402836;19;1848;-63
2022/05/25 07:35:02;;;;;;;;;;;;;;;21.16;62.47;100883.09;7405270;19;1539;-61
2022/05/25 07:37:33;;;;;;;;;;;;;;;21.14;63.03;100907.44;7402757;19;1697;-68
2022/05/25 07:40:04;;;;;;;;;;;;;;;21.13;62.58;100899.53;7404438;19;1429;-68
2022/05/25 07:42:34;;;;;;;;;;;;;;;21.11;62.63;100891.63;7404123;19;1312;-68
2022/05/25 07:45:03;;;;;;;;;;;;;;;21.15;62.59;100903.78;7399378;19;1370;-61
2022/05/25 07:47:35;;;;;;;;;;;;;;;21.12;62.67;100887.09;7404318;19;1172;-69
2022/05/25 07:50:04;;;;;;;;;;;;;;;21.10;62.44;100891.78;7400540;19;1341;-68
2022/05/25 07:52:35;;;;;;;;;;;;;;;21.11;62.56;100902.38;7401976;19;1873;-61
2022/05/25 07:55:03;;;;;;;;;;;;;;;21.10;62.82;100907.91;7403562;19;1209;-61
2022/05/25 07:57:32;;;;;;;;;;;;;;;21.10;62.84;100892.59;7403650;19;1311;-69
2022/05/25 08:00:00;;;;;;;;;;;;;;;21.13;62.28;100903.09;7403573;19;1419;-61
2022/05/25 08:07:57;;;;;;;;;;;;;;;21.11;62.65;100893.44;7411492;19;1288;-68
2022/05/25 08:10:26;;;;;;;;;;;;;;;21.11;62.58;100923.91;7409589;19;1559;-68
2022/05/25 08:12:57;;;;;;;;;;;;;;;21.10;62.89;100907.91;7409109;19;1853;-61
2022/05/25 08:15:26;;;;;;;;;;;;;;;21.09;62.61;100915.13;7411707;19;1765;-68
2022/05/25 08:17:55;;;;;;;;;;;;;;;21.10;62.59;100910.59;7409517;19;1633;-61
2022/05/25 08:20:25;;;;;;;;;;;;;;;21.08;62.80;100893.75;7410377;19;1557;-68
2022/05/25 08:22:54;;;;;;;;;;;;;;;21.09;62.71;100900.81;7411663;19;1599;-68
2022/05/25 08:25:22;;;;;;;;;;;;;;;21.10;62.62;100900.66;7409974;19;1724;-68
2022/05/25 08:27:50;;;;;;;;;;;;;;;21.10;62.68;100902.53;7409943;19;1865;-61
2022/05/25 08:30:20;;;;;;;;;;;;;;;21.10;62.54;100894.47;7411104;19;1331;-61
2022/05/25 08:32:49;;;;;;;;;;;;;;;21.14;62.31;100917.38;7408266;19;1861;-60
2022/05/25 08:35:18;;;;;;;;;;;;;;;21.12;62.45;100919.34;7410350;19;1538;-67
2022/05/25 08:37:48;;;;;;;;;;;;;;;21.13;62.55;100900.41;7410657;19;1622;-68
2022/05/25 08:40:19;;;;;;;;;;;;;;;21.11;62.68;100891.63;7410569;19;1474;-60
2022/05/25 08:42:51;;;;;;;;;;;;;;;21.10;62.81;100895.28;7410489;19;1734;-68
2022/05/25 08:45:20;;;;;;;;;;;;;;;21.12;62.48;100905.91;7410154;19;1547;-68
2022/05/25 08:47:51;;;;;;;;;;;;;;;21.10;62.49;100895.28;7410445;19;1607;-69
2022/05/25 08:50:20;;;;;;;;;;;;;;;21.10;62.58;100903.38;7410312;19;1555;-61
2022/05/25 08:52:51;;;;;;;;;;;;;;;21.09;62.71;100887.38;7407744;19;1869;-61
2022/05/25 08:55:27;;;;;;;;;;;;;;;21.09;62.58;100914.25;7411050;19;1614;-68
2022/05/25 08:57:59;;;;;;;;;;;;;;;21.09;62.63;100920.50;7406942;19;1437;-67
2022/05/25 09:00:27;;;;;;;;;;;;;;;21.10;62.61;100915.97;7407696;19;1384;-68
2022/05/25 09:03:00;;;;;;;;;;;;;;;21.16;62.88;100888.50;7406930;19;1523;-61
2022/05/25 09:05:34;;;;;;;;;;;;;;;21.13;62.82;100894.16;7408376;19;1286;-61
2022/05/25 09:08:08;;;;;;;;;;;;;;;21.16;62.92;100901.94;7409463;19;1337;-61
2022/05/25 09:10:42;;;;;;;;;;;;;;;21.18;62.79;100897.25;7410606;19;1619;-68
2022/05/25 09:13:14;;;;;;;;;;;;;;;21.15;62.87;100898.41;7406417;19;1852;-61
2022/05/25 09:18:33;;;;;;;;;;;;;;;21.18;62.75;100891.88;7405995;19;1430;-67
2022/05/25 09:21:03;;;;;;;;;;;;;;;21.22;62.53;100893.28;7409213;19;1674;-61
2022/05/25 09:23:35;;;;;;;;;;;;;;;21.24;62.39;100904.72;7407968;19;1504;-67
2022/05/25 09:26:03;;;;;;;;;;;;;;;21.20;62.78;100906.03;7410261;19;1579;-68
2022/05/25 09:28:33;;;;;;;;;;;;;;;21.25;62.75;100909.13;7409261;19;1229;-62
2022/05/25 09:31:02;;;;;;;;;;;;;;;21.33;62.56;100903.00;7408644;19;1622;-60
2022/05/25 09:33:35;;;;;;;;;;;;;;;21.25;62.33;100904.59;7404465;19;1681;-60
2022/05/25 09:36:05;;;;;;;;;;;;;;;21.27;62.39;100896.38;7406938;19;1490;-61
2022/05/25 09:38:48;;;;;;;;;;;;;;;21.32;62.46;100910.22;7406527;19;1489;-63
2022/05/25 09:41:17;;;;;;;;;;;;;;;21.29;62.27;100904.28;7405855;19;1384;-65
2022/05/25 09:43:46;;;;;;;;;;;;;;;21.28;62.53;100897.22;7406791;19;1246;-62
2022/05/25 09:46:19;;;;;;;;;;;;;;;21.27;62.55;100904.44;7407866;19;1235;-62
2022/05/25 09:48:50;;;;;;;;;;;;;;;21.30;62.27;100900.63;7408649;19;1626;-68
2022/05/25 09:51:24;;;;;;;;;;;;;;;21.28;62.55;100898.06;7407679;19;1847;-63
2022/05/25 09:53:57;;;;;;;;;;;;;;;21.28;62.55;100895.38;7406764;19;1288;-65
2022/05/25 09:56:30;;;;;;;;;;;;;;;21.31;62.57;100903.16;7407333;19;1508;-67
2022/05/25 09:59:00;;;;;;;;;;;;;;;21.28;62.39;100887.31;7406743;19;1326;-68
2022/05/25 10:01:31;;;;;;;;;;;;;;;21.32;62.23;100899.47;7404785;19;1559;-70
2022/05/25 10:04:01;;;;;;;;;;;;;;;21.27;62.74;100880.25;7407096;19;1720;-71
2022/05/25 10:06:38;;;;;;;;;;;;;;;21.32;62.27;100885.16;7408295;19;1555;-60
2022/05/25 10:09:14;;;;;;;;;;;;;;;21.25;62.73;100877.69;7404687;19;1202;-65
2022/05/25 10:11:44;;;;;;;;;;;;;;;21.38;62.01;100879.19;7406337;19;1872;-60
2022/05/25 10:14:25;;;;;;;;;;;;;;;21.32;62.49;100867.19;7406269;19;1332;-60
2022/05/25 10:16:53;;;;;;;;;;;;;;;21.30;62.29;100874.56;7407401;19;1345;-60
2022/05/25 10:19:23;;;;;;;;;;;;;;;21.30;62.17;100877.25;7406934;19;1763;-65
2022/05/25 10:21:53;;;;;;;;;;;;;;;21.34;62.01;100867.88;7406976;19;1308;-66
2022/05/25 10:24:27;;;;;;;;;;;;;;;21.30;62.19;100871.88;7407296;19;1625;-63
2022/05/25 10:26:57;;;;;;;;;;;;;;;21.32;62.21;100867.19;7405171;19;1797;-65
2022/05/25 10:37:56;;;;;;;;;;;;;;;21.31;62.21;100865.50;7399790;19;1376;-60
2022/05/25 10:40:28;;;;;;;;;;;;;;;21.30;62.39;100869.19;7405592;19;1260;-60
2022/05/25 10:42:59;;;;;;;;;;;;;;;21.25;62.89;100856.19;7404781;19;1399;-59
2022/05/25 10:45:33;;;;;;;;;;;;;;;21.25;63.10;100872.31;7401853;19;1439;-66
2022/05/25 10:48:07;;;;;;;;;;;;;;;21.25;62.94;100869.63;7404304;19;1335;-64
2022/05/25 10:50:39;;;;;;;;;;;;;;;21.15;61.96;100867.94;7406005;19;1436;-65
2022/05/25 10:53:13;;;;;;;;;;;;;;;21.15;62.35;100859.88;7404061;19;1853;-59
2022/05/25 10:55:52;;;;;;;;;;;;;;;21.21;62.55;100862.00;7405747;19;1222;-66
2022/05/25 10:58:35;;;;;;;;;;;;;;;21.23;62.80;100868.09;7404296;19;1326;-60
2022/05/25 11:01:12;;;;;;;;;;;;;;;21.26;62.49;100859.72;7402461;19;1544;-60
2022/05/25 11:03:50;;;;;;;;;;;;;;;21.25;62.86;100866.09;7403818;19;1290;-64
2022/05/25 11:06:31;;;;;;;;;;;;;;;21.30;62.92;100858.41;7404457;19;1274;-60
2022/05/25 11:09:08;;;;;;;;;;;;;;;21.36;62.91;100859.66;7403717;19;1222;-59
2022/05/25 11:11:44;;;;;;;;;;;;;;;21.33;62.66;100847.38;7404317;19;1843;-59
2022/05/25 11:14:22;;;;;;;;;;;;;;;21.36;62.89;100855.13;7404781;19;1351;-65
2022/05/25 11:16:55;;;;;;;;;;;;;;;21.43;63.74;100858.13;7405609;19;1295;-67
2022/05/25 11:19:45;;;;;;;;;;;;;;;21.44;63.83;100844.50;7403275;19;1631;-66
2022/05/25 11:22:22;;;;;;;;;;;;;;;21.54;63.59;100835.53;7404454;19;1506;-61
2022/05/25 11:24:58;;;;;;;;;;;;;;;21.59;63.62;100834.09;7402637;19;1699;-68
2022/05/25 11:27:39;;;;;;;;;;;;;;;21.62;63.86;100824.84;7403509;19;1760;-71
2022/05/25 11:30:10;;;;;;;;;;;;;;;21.63;64.35;100827.41;7404141;19;1690;-62
2022/05/25 11:32:54;;;;;;;;;;;;;;;21.58;63.90;100828.84;7404187;19;1873;-70
2022/05/25 11:35:28;;;;;;;;;;;;;;;21.51;64.32;100825.09;7402356;19;1581;-62
2022/05/25 11:38:04;;;;;;;;;;;;;;;21.47;64.26;100831.75;7404759;19;1524;-61
2022/05/25 11:40:43;;;;;;;;;;;;;;;21.48;64.13;100828.06;7403760;19;1497;-63
2022/05/25 11:43:27;;;;;;;;;;;;;;;21.42;64.29;100829.47;7404280;19;1339;-60
2022/05/25 11:45:58;;;;;;;;;;;;;;;21.47;64.15;100831.75;7405576;19;1527;-71
2022/05/25 11:48:36;;;;;;;;;;;;;;;21.40;64.01;100820.72;7404584;19;1618;-59
2022/05/25 11:51:11;;;;;;;;;;;;;;;21.35;64.32;100823.84;7403282;19;1331;-68
2022/05/25 11:53:50;;;;;;;;;;;;;;;21.30;64.41;100819.91;7402329;19;1850;-59
2022/05/25 11:56:26;;;;;;;;;;;;;;;21.28;64.37;100812.00;7403731;19;1390;-68
2022/05/25 11:59:06;;;;;;;;;;;;;;;21.25;64.79;100839.19;7402957;19;1232;-59
2022/05/25 12:01:40;;;;;;;;;;;;;;;21.25;64.37;100817.69;7401970;19;1603;-58
2022/05/25 12:04:24;;;;;;;;;;;;;;;21.21;64.69;100821.69;7404480;19;1781;-58
2022/05/25 12:06:58;;;;;;;;;;;;;;;21.21;64.56;100819.81;7404657;19;1083;-59
2022/05/25 12:09:34;;;;;;;;;;;;;;;21.21;64.70;100816.28;7404148;19;1411;-59
2022/05/25 12:12:07;;;;;;;;;;;;;;;21.19;64.38;100799.47;7403732;19;1847;-68
2022/05/25 12:14:44;;;;;;;;;;;;;;;21.22;64.72;100818.81;7403845;19;1312;-59
2022/05/25 12:17:25;;;;;;;;;;;;;;;21.18;64.47;100801.28;7403144;19;1629;-59
2022/05/25 12:19:54;;;;;;;;;;;;;;;21.21;64.50;100808.22;7403703;19;1564;-68
2022/05/25 12:22:25;;;;;;;;;;;;;;;21.18;64.58;100795.91;7404645;19;1228;-59
2022/05/25 12:24:55;;;;;;;;;;;;;;;21.18;64.82;100792.38;7403567;19;1574;-61
2022/05/25 12:27:25;;;;;;;;;;;;;;;21.18;64.82;100785.16;7403057;19;1351;-59
2022/05/25 12:29:57;;;;;;;;;;;;;;;21.25;64.81;100815.84;7398315;19;1690;-66
2022/05/25 12:32:28;;;;;;;;;;;;;;;21.27;64.75;100794.19;7402701;19;1854;-60
2022/05/25 12:34:57;;;;;;;;;;;;;;;21.33;64.68;100793.56;7403082;19;1513;-70
2022/05/25 12:37:28;;;;;;;;;;;;;;;21.40;64.18;100778.50;7403461;19;1321;-59
2022/05/25 12:39:58;;;;;;;;;;;;;;;21.38;64.13;100788.56;7401857;19;1346;-59
2022/05/25 12:42:35;;;;;;;;;;;;;;;21.32;64.23;100775.72;7402090;19;1418;-59
2022/05/25 12:50:41;;;;;;;;;;;;;;;21.33;64.24;100761.31;7411911;19;1543;-59
2022/05/25 12:53:21;;;;;;;;;;;;;;;21.47;64.98;100753.72;7408292;19;1859;-59
2022/05/25 12:55:56;;;;;;;;;;;;;;;21.39;65.31;100752.63;7408415;19;1261;-69
2022/05/25 12:58:35;;;;;;;;;;;;;;;21.28;66.97;100750.13;7410805;19;1610;-59
2022/05/25 13:01:07;;;;;;;;;;;;;;;21.27;66.77;100756.53;7407904;19;1447;-69
2022/05/25 13:03:43;;;;;;;;;;;;;;;21.26;66.62;100752.13;7410710;19;1613;-70
2022/05/25 13:06:12;;;;;;;;;;;;;;;21.33;66.33;100745.16;7409759;19;1631;-64
2022/05/25 13:09:09;;;;;;;;;;;;;;;21.32;64.53;100759.59;7406815;19;1343;-59
2022/05/25 13:11:38;;;;;;;;;;;;;;;21.26;65.23;100750.28;7408806;19;1535;-69
2022/05/25 13:14:09;;;;;;;;;;;;;;;21.27;65.80;100748.47;7406320;19;1895;-59
2022/05/25 13:16:58;;;;;;;;;;;;;;;21.27;66.46;100737.69;7409639;19;1305;-69
2022/05/25 13:19:40;;;;;;;;;;;;;;;21.31;66.13;100722.94;7408682;19;1422;-60
2022/05/25 13:22:14;;;;;;;;;;;;;;;21.38;65.98;100739.31;7406800;19;1718;-60
2022/05/25 13:24:53;;;;;;;;;;;;;;;21.35;65.99;100750.41;7408391;19;1534;-67
2022/05/25 13:27:36;;;;;;;;;;;;;;;21.31;65.86;100720.25;7405494;19;1232;-68
2022/05/25 13:30:23;;;;;;;;;;;;;;;21.36;65.60;100726.00;7406332;19;1479;-59
2022/05/25 13:32:55;;;;;;;;;;;;;;;21.32;65.42;100716.56;7406915;19;1865;-60
2022/05/25 13:35:41;;;;;;;;;;;;;;;21.35;65.58;100737.78;7407809;19;1489;-60
2022/05/25 13:38:21;;;;;;;;;;;;;;;21.41;65.34;100734.47;7406681;19;1421;-65
2022/05/25 13:40:50;;;;;;;;;;;;;;;21.48;65.58;100736.59;7403764;19;1564;-62
2022/05/25 13:43:21;;;;;;;;;;;;;;;21.53;65.74;100700.16;7405387;19;1317;-65
2022/05/25 13:45:51;;;;;;;;;;;;;;;21.52;66.24;100703.00;7404049;19;1447;-65